createdAt,value
2018-04-13T03:32:34.823Z,98.50
2018-04-13T03:35:08.654Z,98.50
2018-04-13T03:37:43.560Z,98.60
2018-04-13T03:40:17.230Z,98.50
2018-04-13T03:42:51.863Z,98.90
2018-04-13T03:45:25.702Z,98.60
2018-04-13T03:48:00.278Z,99.00
2018-04-13T03:50:34.050Z,98.70
2018-04-13T03:53:07.805Z,98.90
2018-04-13T03:55:42.546Z,98.90
2018-04-13T03:58:36.119Z,98.90
2018-04-13T04:01:10.015Z,98.90
2018-04-13T04:03:43.790Z,98.80
2018-04-13T04:06:17.913Z,98.90
2018-04-13T04:08:51.659Z,98.90
2018-04-13T04:11:26.258Z,98.90
2018-04-13T04:14:00.088Z,98.80
2018-04-13T04:16:33.881Z,98.90
2018-04-13T04:19:07.625Z,98.80
2018-04-13T04:21:54.239Z,98.50
2018-04-13T04:24:40.031Z,98.50
2018-04-13T04:27:13.865Z,98.30
2018-04-13T04:29:47.676Z,97.10
2018-04-13T04:32:21.355Z,96.70
2018-04-13T04:34:55.192Z,96.50
2018-04-13T04:37:28.956Z,96.50
2018-04-13T04:40:02.850Z,96.90
2018-04-13T04:42:37.359Z,96.60
2018-04-13T04:45:11.545Z,96.80
2018-04-13T04:47:45.299Z,97.00
2018-04-13T04:50:19.421Z,96.90
2018-04-13T04:52:53.195Z,96.50
2018-04-13T04:55:27.007Z,97.00
2018-04-13T04:58:00.793Z,97.00
2018-04-13T05:00:35.319Z,97.40
2018-04-13T05:03:09.084Z,97.30
2018-04-13T05:05:42.863Z,97.50
2018-04-13T05:08:16.727Z,97.70
2018-04-13T05:10:52.403Z,97.50
2018-04-13T05:13:26.167Z,97.50
2018-04-13T05:16:00.811Z,97.20
2018-04-13T05:18:36.127Z,97.10
2018-04-13T05:21:09.852Z,97.00
2018-04-13T05:23:44.490Z,97.10
2018-04-13T05:26:19.147Z,97.40
2018-04-13T05:28:52.898Z,97.30
2018-04-13T05:31:26.715Z,97.30
2018-04-13T05:34:01.224Z,97.10
2018-04-13T05:36:36.504Z,97.20
2018-04-13T05:39:10.277Z,97.20
2018-04-13T05:41:44.039Z,96.90
2018-04-13T05:44:17.958Z,97.00
2018-04-13T05:46:51.716Z,97.00
2018-04-13T05:49:25.591Z,96.80
2018-04-13T05:52:00.821Z,96.90
2018-04-13T05:54:34.639Z,96.80
2018-04-13T05:57:08.563Z,97.10
2018-04-13T05:59:42.319Z,97.00
2018-04-13T06:02:20.206Z,96.90
2018-04-13T06:04:54.020Z,96.90
2018-04-13T06:07:27.934Z,96.80
2018-04-13T06:10:02.778Z,96.80
2018-04-13T06:12:36.518Z,96.80
2018-04-13T06:15:11.264Z,97.00
2018-04-13T06:17:45.022Z,97.10
2018-04-13T06:20:18.902Z,96.80
2018-04-13T06:22:53.004Z,96.90
2018-04-13T06:25:27.568Z,96.30
2018-04-13T06:28:01.297Z,96.50
2018-04-13T06:30:35.103Z,96.50
2018-04-13T06:33:09.007Z,96.60
2018-04-13T06:35:44.231Z,96.00
2018-04-13T06:38:18.118Z,96.00
2018-04-13T06:40:51.914Z,96.10
2018-04-13T06:43:25.673Z,96.10
2018-04-13T06:45:59.499Z,95.90
2018-04-13T06:48:33.390Z,95.50
2018-04-13T06:51:07.288Z,95.80
2018-04-13T06:53:41.560Z,95.80
2018-04-13T06:56:16.223Z,95.80
2018-04-13T06:58:50.770Z,95.60
2018-04-13T07:01:25.261Z,95.20
2018-04-13T07:03:59.434Z,95.20
2018-04-13T07:06:33.199Z,95.40
2018-04-13T07:09:07.056Z,95.10
2018-04-13T07:11:41.413Z,94.90
2018-04-13T07:14:15.280Z,94.80
2018-04-13T07:16:49.074Z,94.80
2018-04-13T07:19:23.143Z,94.60
2018-04-13T07:21:56.917Z,94.70
2018-04-13T07:24:30.689Z,94.80
2018-04-13T07:27:04.585Z,94.70
2018-04-13T07:29:38.375Z,94.60
2018-04-13T07:32:12.238Z,94.60
2018-04-13T07:34:45.940Z,94.90
2018-04-13T07:37:19.700Z,94.80
2018-04-13T07:39:54.235Z,94.10
2018-04-13T07:42:28.254Z,94.10
2018-04-13T07:45:01.988Z,93.80
2018-04-13T07:47:36.359Z,93.70
2018-04-13T07:50:10.087Z,93.70
2018-04-13T07:52:43.767Z,92.90
2018-04-13T07:55:17.539Z,92.70
2018-04-13T07:57:51.271Z,92.70
2018-04-13T08:00:25.821Z,93.20
2018-04-13T08:02:59.901Z,93.20
2018-04-13T08:05:33.740Z,93.30
2018-04-13T08:08:08.542Z,93.70
2018-04-13T08:10:42.362Z,93.70
2018-04-13T08:13:16.497Z,93.80
2018-04-13T08:15:51.339Z,93.40
2018-04-13T08:18:25.089Z,93.30
2018-04-13T08:20:59.180Z,93.00
2018-04-13T08:23:33.052Z,92.60
2018-04-13T08:26:07.519Z,92.30
2018-04-13T08:28:41.341Z,92.30
2018-04-13T08:31:14.966Z,92.20
2018-04-13T08:33:48.884Z,91.80
2018-04-13T08:36:23.019Z,91.80
2018-04-13T08:38:56.794Z,91.80
2018-04-13T08:41:30.612Z,91.30
2018-04-13T08:44:05.300Z,91.40
2018-04-13T08:46:39.095Z,91.40
2018-04-13T08:49:13.780Z,91.70
2018-04-13T08:51:49.011Z,91.50
2018-04-13T08:54:22.877Z,91.50
2018-04-13T08:56:56.938Z,91.50
2018-04-13T08:59:30.613Z,91.40
2018-04-13T09:02:04.441Z,91.50
2018-04-13T09:04:38.231Z,91.70
2018-04-13T09:07:12.061Z,91.40
2018-04-13T09:09:45.818Z,90.90
2018-04-13T09:12:19.661Z,91.30
2018-04-13T09:14:55.674Z,91.70
2018-04-13T09:17:29.811Z,91.40
2018-04-13T09:20:05.059Z,92.00
2018-04-13T09:22:39.611Z,91.90
2018-04-13T09:25:13.411Z,91.90
2018-04-13T09:27:50.553Z,92.20
2018-04-13T09:30:24.367Z,92.10
2018-04-13T09:32:58.158Z,92.20
2018-04-13T09:35:32.926Z,90.70
2018-04-13T09:38:07.809Z,90.20
2018-04-13T09:40:42.015Z,90.20
2018-04-13T09:43:16.497Z,83.40
2018-04-13T09:45:51.146Z,83.50
2018-04-13T09:48:24.846Z,83.40
2018-04-13T09:50:58.630Z,81.50
2018-04-13T09:53:32.488Z,79.10
2018-04-13T09:56:06.318Z,77.50
2018-04-13T09:58:40.141Z,76.60
2018-04-13T10:01:15.910Z,77.00
2018-04-13T10:06:41.392Z,82.40
2018-04-13T10:09:15.222Z,87.90
2018-04-13T10:11:49.046Z,92.60
2018-04-13T10:14:22.990Z,94.20
2018-04-13T10:16:56.739Z,94.90
2018-04-13T10:19:30.580Z,96.70
2018-04-13T10:22:04.373Z,96.30
2018-04-13T10:24:43.170Z,96.20
2018-04-13T10:27:16.987Z,96.20
2018-04-13T10:29:50.811Z,95.80
2018-04-13T10:32:24.605Z,95.30
2018-04-13T10:34:58.461Z,95.30
2018-04-13T10:37:32.208Z,96.80
2018-04-13T10:40:06.042Z,96.40
2018-04-13T10:42:39.798Z,97.20
2018-04-13T10:45:13.627Z,98.50
2018-04-13T10:47:48.458Z,98.60
2018-04-13T10:50:22.252Z,98.90
2018-04-13T10:52:56.775Z,99.80
2018-04-13T10:55:30.711Z,99.90
2018-04-13T10:58:04.490Z,99.90
2018-04-13T11:00:38.351Z,99.90
2018-04-13T11:03:12.910Z,99.90
2018-04-13T11:05:46.755Z,99.90
2018-04-13T11:08:21.249Z,99.90
2018-04-13T11:10:55.114Z,99.90
2018-04-13T11:13:31.600Z,99.90
2018-04-13T11:16:05.374Z,99.90
2018-04-13T11:18:39.167Z,99.90
2018-04-13T11:21:12.963Z,99.90
2018-04-13T11:23:46.739Z,99.90
2018-04-13T11:26:20.559Z,99.90
2018-04-13T11:28:54.458Z,99.90
2018-04-13T11:31:28.135Z,99.90
2018-04-13T11:34:01.995Z,99.90
2018-04-13T11:36:36.879Z,99.90
2018-04-13T11:39:11.330Z,99.90
2018-04-13T11:41:47.069Z,99.90
2018-04-13T11:44:20.860Z,99.90
2018-04-13T11:46:54.959Z,99.90
2018-04-13T11:49:28.771Z,99.90
2018-04-13T11:52:02.602Z,99.90
2018-04-13T11:54:36.440Z,99.90
2018-04-13T11:57:11.134Z,99.90
2018-04-13T11:59:46.892Z,99.90
2018-04-13T12:02:20.800Z,99.90
2018-04-13T12:04:56.125Z,99.90
2018-04-13T12:07:30.066Z,99.90
2018-04-13T12:10:04.657Z,99.90
2018-04-13T12:12:39.225Z,99.90
2018-04-13T12:15:13.803Z,99.90
2018-04-13T12:17:47.659Z,99.90
2018-04-13T12:20:21.500Z,99.90
2018-04-13T12:22:55.366Z,99.90
2018-04-13T12:25:29.075Z,99.90
2018-04-13T12:28:03.581Z,99.90
2018-04-13T12:30:37.194Z,99.90
2018-04-13T12:33:11.303Z,99.90
2018-04-13T12:35:47.000Z,99.90
2018-04-13T12:38:21.684Z,99.90
2018-04-13T12:54:03.867Z,99.90
2018-04-13T12:56:37.659Z,99.90
2018-04-13T12:59:11.543Z,99.90
2018-04-13T13:01:46.081Z,99.90
2018-04-13T13:04:19.850Z,99.90
2018-04-13T13:06:53.610Z,99.90
2018-04-13T13:09:27.467Z,99.90
2018-04-13T13:12:02.119Z,99.90
2018-04-13T13:14:35.899Z,99.90
2018-04-13T13:17:09.681Z,99.90
2018-04-13T13:19:44.407Z,99.90
2018-04-13T13:22:18.195Z,99.90
2018-04-13T13:24:51.991Z,99.90
2018-04-13T13:27:25.815Z,99.90
2018-04-13T13:29:59.755Z,99.90
2018-04-13T13:32:34.308Z,99.90
2018-04-13T13:35:08.158Z,99.90
2018-04-13T13:37:42.757Z,99.90
2018-04-13T13:40:16.606Z,99.90
2018-04-13T13:42:50.482Z,99.90
2018-04-13T13:45:24.243Z,99.90
2018-04-13T13:47:58.016Z,99.90
2018-04-13T13:50:32.870Z,99.90
2018-04-13T13:53:08.635Z,99.90
2018-04-13T13:55:42.465Z,99.90
2018-04-13T13:58:18.102Z,99.90
2018-04-13T14:00:51.857Z,99.90
2018-04-13T14:03:26.041Z,99.90
2018-04-13T14:06:00.020Z,99.90
2018-04-13T14:08:34.658Z,99.90
2018-04-13T14:11:10.326Z,99.90
2018-04-13T14:13:44.154Z,99.90
2018-04-13T14:16:18.037Z,99.90
2018-04-13T14:18:52.746Z,99.90
2018-04-13T14:21:26.505Z,99.90
2018-04-13T14:24:00.266Z,99.70
2018-04-13T14:26:34.146Z,99.80
2018-04-13T14:29:10.035Z,99.40
2018-04-13T14:31:43.847Z,99.90
2018-04-13T14:34:18.485Z,99.70
2018-04-13T14:36:52.258Z,99.70
2018-04-13T14:39:26.926Z,99.60
2018-04-13T14:42:01.035Z,99.50
2018-04-13T14:44:35.975Z,99.80
2018-04-13T14:47:09.651Z,99.10
2018-04-13T14:49:43.372Z,98.70
2018-04-13T14:52:17.983Z,98.80
2018-04-13T14:54:51.785Z,98.80
2018-04-13T14:57:25.524Z,99.10
2018-04-13T14:59:59.339Z,99.30
2018-04-13T15:02:33.142Z,98.90
2018-04-13T15:05:06.947Z,99.20
2018-04-13T15:07:40.801Z,99.10
2018-04-13T15:10:14.592Z,98.90
2018-04-13T15:12:48.397Z,98.60
2018-04-13T15:15:23.045Z,98.40
2018-04-13T15:17:56.931Z,98.40
2018-04-13T15:20:30.730Z,98.30
2018-04-13T15:23:04.545Z,98.00
2018-04-13T15:25:39.226Z,98.00
2018-04-13T15:28:13.157Z,97.80
2018-04-13T15:30:49.513Z,97.60
2018-04-13T15:33:23.431Z,97.60
2018-04-13T15:35:57.626Z,97.20
2018-04-13T15:38:31.507Z,97.00
2018-04-13T15:41:05.642Z,97.10
2018-04-13T15:43:40.232Z,97.60
2018-04-13T15:46:14.115Z,97.60
2018-04-13T15:48:48.782Z,97.60
2018-04-13T15:51:22.626Z,97.60
2018-04-13T15:53:56.527Z,97.70
2018-04-13T15:56:30.396Z,97.80
2018-04-13T15:59:04.927Z,97.30
2018-04-13T16:01:38.800Z,97.30
2018-04-13T16:04:12.552Z,97.30
2018-04-13T16:06:46.417Z,97.10
2018-04-13T16:09:20.183Z,97.40
2018-04-13T16:11:54.152Z,97.40
2018-04-13T16:14:27.979Z,97.30
2018-04-13T16:17:01.855Z,97.40
2018-04-13T16:19:35.885Z,97.40
2018-04-13T16:22:09.707Z,97.20
2018-04-13T16:24:44.334Z,97.50
2018-04-13T16:27:18.179Z,97.50
2018-04-13T16:29:51.963Z,97.70
2018-04-13T16:32:26.585Z,97.50
2018-04-13T16:35:01.172Z,97.70
2018-04-13T16:37:35.214Z,97.70
2018-04-13T16:40:09.823Z,97.10
2018-04-13T16:42:43.628Z,97.00
2018-04-13T16:45:17.517Z,97.10
2018-04-13T16:47:51.402Z,96.60
2018-04-13T16:50:25.939Z,95.90
2018-04-13T16:53:00.482Z,96.10
2018-04-13T16:55:35.141Z,95.40
2018-04-13T16:58:09.105Z,95.40
2018-04-13T17:00:43.558Z,94.40
2018-04-13T17:03:17.243Z,94.40
2018-04-13T17:05:51.111Z,94.60
2018-04-13T17:08:26.393Z,94.70
2018-04-13T17:11:00.251Z,94.60
2018-04-13T17:13:34.042Z,96.20
2018-04-13T17:16:08.665Z,97.10
2018-04-13T17:18:43.223Z,97.10
2018-04-13T17:21:18.253Z,97.60
2018-04-13T17:23:51.907Z,97.70
2018-04-13T17:26:25.673Z,97.70
2018-04-13T17:28:59.499Z,97.60
2018-04-13T17:31:33.335Z,97.90
2018-04-13T17:34:07.958Z,98.30
2018-04-13T17:36:42.579Z,98.50
2018-04-13T17:39:17.159Z,98.40
2018-04-13T17:41:51.939Z,98.60
2018-04-13T17:44:25.740Z,98.60
2018-04-13T17:46:59.566Z,99.00
2018-04-13T17:49:33.356Z,98.70
2018-04-13T17:52:08.287Z,98.70
2018-04-13T17:54:41.982Z,98.70
2018-04-13T17:57:15.678Z,98.90
2018-04-13T17:59:49.504Z,99.10
2018-04-13T18:02:23.610Z,99.50
2018-04-13T18:04:57.382Z,99.90
2018-04-13T18:07:31.163Z,99.90
2018-04-13T18:10:04.918Z,99.80
2018-04-13T18:12:38.850Z,99.80
2018-04-13T18:15:12.555Z,99.90
2018-04-13T18:17:46.294Z,99.60
2018-04-13T18:20:20.090Z,99.50
2018-04-13T18:22:53.860Z,99.50
2018-04-13T18:25:27.848Z,99.70
2018-04-13T18:28:01.782Z,99.20
2018-04-13T18:30:35.690Z,98.30
2018-04-13T18:33:10.296Z,98.30
2018-04-13T18:35:44.043Z,98.20
2018-04-13T18:38:18.621Z,98.30
2018-04-13T18:40:52.258Z,98.30
2018-04-13T18:43:26.863Z,98.70
2018-04-13T18:46:00.623Z,98.70
2018-04-13T18:48:35.290Z,98.50
2018-04-13T18:51:09.303Z,98.50
2018-04-13T18:53:43.108Z,98.40
2018-04-13T18:56:16.979Z,98.20
2018-04-13T18:58:51.536Z,98.10
2018-04-13T19:01:25.318Z,98.10
2018-04-13T19:03:59.055Z,98.10
2018-04-13T19:06:33.668Z,98.10
2018-04-13T19:09:07.348Z,98.00
2018-04-13T19:11:41.810Z,98.10
2018-04-13T19:14:15.616Z,98.10
2018-04-13T19:16:49.523Z,97.90
2018-04-13T19:19:23.603Z,98.00
2018-04-13T19:21:58.124Z,98.10
2018-04-13T19:24:31.843Z,98.00
2018-04-13T19:27:05.578Z,98.00
2018-04-13T19:29:39.675Z,97.80
2018-04-13T19:32:14.192Z,97.70
2018-04-13T19:34:47.899Z,97.70
2018-04-13T19:37:22.397Z,97.70
2018-04-13T19:39:56.900Z,97.70
2018-04-13T19:42:30.627Z,97.70
2018-04-13T19:45:05.188Z,97.90
2018-04-13T19:47:38.907Z,97.90
2018-04-13T19:50:12.668Z,98.10
2018-04-13T19:52:46.511Z,98.00
2018-04-13T19:55:20.299Z,98.00
2018-04-13T19:57:56.895Z,98.10
2018-04-13T20:00:30.534Z,98.00
2018-04-13T20:03:04.418Z,97.50
2018-04-13T20:05:38.215Z,97.60
2018-04-13T20:08:13.701Z,97.10
2018-04-13T20:10:47.602Z,97.10
2018-04-13T20:13:21.380Z,97.20
2018-04-13T20:15:55.159Z,96.80
2018-04-13T20:18:28.966Z,96.60
2018-04-13T20:21:03.078Z,96.20
2018-04-13T20:23:36.855Z,97.10
2018-04-13T20:26:10.980Z,97.80
2018-04-13T20:28:44.714Z,98.10
2018-04-13T20:31:19.326Z,96.70
2018-04-13T20:33:53.019Z,96.60
2018-04-13T20:36:26.832Z,96.80
2018-04-13T20:39:00.562Z,97.30
2018-04-13T20:41:34.322Z,97.60
2018-04-13T20:44:08.964Z,98.30
2018-04-13T20:46:42.639Z,98.30
2018-04-13T20:49:16.517Z,98.60
2018-04-13T20:51:50.300Z,98.90
2018-04-13T20:54:24.494Z,99.10
2018-04-13T20:56:58.298Z,99.30
2018-04-13T20:59:32.014Z,99.70
